sensor_id;sensor_type;location;lat;lon;timestamp;pressure;altitude;pressure_sealevel;temperature;humidity
15634;BME280;14654;48.898;8.308;2023-09-12T00:00:02;99793.78;;;20.08;100.00
15634;BME280;14654;48.898;8.308;2023-09-12T00:02:30;99791.44;;;20.04;100.00
15634;BME280;14654;48.898;8.308;2023-09-12T00:04:55;99798.66;;;20.00;100.00
15634;BME280;14654;48.898;8.308;2023-09-12T00:07:21;99792.81;;;19.95;100.00
15634;BME280;14654;48.898;8.308;2023-09-12T00:09:46;99793.91;;;19.91;100.00
15634;BME280;14654;48.898;8.308;2023-09-12T00:12:14;99789.66;;;19.88;100.00
15634;BME280;14654;48.898;8.308;2023-09-12T00:14:40;99788.03;;;19.86;100.00
15634;BME280;14654;48.898;8.308;2023-09-12T00:17:05;99789.91;;;19.84;100.00
15634;BME280;14654;48.898;8.308;2023-09-12T00:19:30;99794.22;;;19.85;100.00
15634;BME280;14654;48.898;8.308;2023-09-12T00:21:56;99795.91;;;19.86;100.00
15634;BME280;14654;48.898;8.308;2023-09-12T00:24:21;99789.78;;;19.87;100.00
15634;BME280;14654;48.898;8.308;2023-09-12T00:26:46;99788.22;;;19.83;100.00
15634;BME280;14654;48.898;8.308;2023-09-12T00:29:11;99791.75;;;19.82;100.00
15634;BME280;14654;48.898;8.308;2023-09-12T00:31:37;99783.13;;;19.79;100.00
15634;BME280;14654;48.898;8.308;2023-09-12T00:34:02;99778.81;;;19.78;100.00
15634;BME280;14654;48.898;8.308;2023-09-12T00:36:28;99785.84;;;19.78;100.00
15634;BME280;14654;48.898;8.308;2023-09-12T00:38:53;99780.66;;;19.76;100.00
15634;BME280;14654;48.898;8.308;2023-09-12T00:41:18;99775.50;;;19.75;100.00
15634;BME280;14654;48.898;8.308;2023-09-12T00:43:44;99783.47;;;19.73;100.00
15634;BME280;14654;48.898;8.308;2023-09-12T00:46:09;99780.00;;;19.73;100.00
15634;BME280;14654;48.898;8.308;2023-09-12T00:48:36;99777.47;;;19.71;100.00
15634;BME280;14654;48.898;8.308;2023-09-12T00:51:03;99774.06;;;19.69;100.00
15634;BME280;14654;48.898;8.308;2023-09-12T00:53:29;99773.31;;;19.67;100.00
15634;BME280;14654;48.898;8.308;2023-09-12T00:55:57;99772.63;;;19.63;100.00
15634;BME280;14654;48.898;8.308;2023-09-12T00:58:25;99775.47;;;19.59;100.00
15634;BME280;14654;48.898;8.308;2023-09-12T01:00:50;99774.91;;;19.54;100.00
15634;BME280;14654;48.898;8.308;2023-09-12T01:03:16;99776.09;;;19.48;100.00
15634;BME280;14654;48.898;8.308;2023-09-12T01:05:43;99771.94;;;19.44;100.00
15634;BME280;14654;48.898;8.308;2023-09-12T01:08:08;99774.66;;;19.42;100.00
15634;BME280;14654;48.898;8.308;2023-09-12T01:10:34;99766.84;;;19.41;100.00
15634;BME280;14654;48.898;8.308;2023-09-12T01:12:59;99771.31;;;19.39;100.00
15634;BME280;14654;48.898;8.308;2023-09-12T01:15:24;99773.94;;;19.39;100.00
15634;BME280;14654;48.898;8.308;2023-09-12T01:17:50;99773.94;;;19.39;100.00
15634;BME280;14654;48.898;8.308;2023-09-12T01:20:24;99773.94;;;19.39;100.00
15634;BME280;14654;48.898;8.308;2023-09-12T01:26:05;99777.50;;;19.38;100.00
15634;BME280;14654;48.898;8.308;2023-09-12T01:28:40;99774.97;;;19.36;100.00
15634;BME280;14654;48.898;8.308;2023-09-12T01:31:08;99779.28;;;19.37;100.00
15634;BME280;14654;48.898;8.308;2023-09-12T01:33:34;99774.16;;;19.36;100.00
15634;BME280;14654;48.898;8.308;2023-09-12T01:35:59;99780.31;;;19.34;100.00
15634;BME280;14654;48.898;8.308;2023-09-12T01:38:25;99780.38;;;19.33;100.00
15634;BME280;14654;48.898;8.308;2023-09-12T01:40:51;99774.38;;;19.31;100.00
15634;BME280;14654;48.898;8.308;2023-09-12T01:43:20;99765.66;;;19.30;100.00
15634;BME280;14654;48.898;8.308;2023-09-12T01:45:47;99763.09;;;19.29;100.00
15634;BME280;14654;48.898;8.308;2023-09-12T01:48:19;99777.91;;;19.30;100.00
15634;BME280;14654;48.898;8.308;2023-09-12T01:50:45;99769.13;;;19.31;100.00
15634;BME280;14654;48.898;8.308;2023-09-12T01:53:11;99775.22;;;19.31;100.00
15634;BME280;14654;48.898;8.308;2023-09-12T01:55:37;99768.19;;;19.32;100.00
15634;BME280;14654;48.898;8.308;2023-09-12T01:58:03;99760.31;;;19.32;100.00
15634;BME280;14654;48.898;8.308;2023-09-12T02:00:29;99760.31;;;19.32;100.00
15634;BME280;14654;48.898;8.308;2023-09-12T02:02:54;99755.16;;;19.30;100.00
15634;BME280;14654;48.898;8.308;2023-09-12T02:05:20;99757.84;;;19.29;100.00
15634;BME280;14654;48.898;8.308;2023-09-12T02:07:47;99757.13;;;19.27;100.00
15634;BME280;14654;48.898;8.308;2023-09-12T02:10:13;99758.19;;;19.23;100.00
15634;BME280;14654;48.898;8.308;2023-09-12T02:12:39;99761.84;;;19.20;100.00
15634;BME280;14654;48.898;8.308;2023-09-12T02:15:05;99772.50;;;19.17;100.00
15634;BME280;14654;48.898;8.308;2023-09-12T02:17:30;99768.34;;;19.13;100.00
15634;BME280;14654;48.898;8.308;2023-09-12T02:19:56;99765.88;;;19.10;100.00
15634;BME280;14654;48.898;8.308;2023-09-12T02:22:21;99760.72;;;19.08;100.00
15634;BME280;14654;48.898;8.308;2023-09-12T02:24:47;99766.88;;;19.07;100.00
15634;BME280;14654;48.898;8.308;2023-09-12T02:27:12;99772.22;;;19.06;100.00
15634;BME280;14654;48.898;8.308;2023-09-12T02:29:41;99769.66;;;19.04;100.00
15634;BME280;14654;48.898;8.308;2023-09-12T02:32:07;99766.13;;;19.05;100.00
15634;BME280;14654;48.898;8.308;2023-09-12T02:34:33;99765.28;;;19.04;100.00
15634;BME280;14654;48.898;8.308;2023-09-12T02:36:59;99782.72;;;19.06;100.00
15634;BME280;14654;48.898;8.308;2023-09-12T02:39:24;99770.53;;;19.04;100.00
15634;BME280;14654;48.898;8.308;2023-09-12T02:41:49;99766.22;;;19.03;100.00
15634;BME280;14654;48.898;8.308;2023-09-12T02:44:15;99770.53;;;19.04;100.00
15634;BME280;14654;48.898;8.308;2023-09-12T02:46:40;99767.03;;;19.04;100.00
15634;BME280;14654;48.898;8.308;2023-09-12T02:49:06;99778.41;;;19.04;100.00
15634;BME280;14654;48.898;8.308;2023-09-12T02:51:31;99778.47;;;19.03;100.00
15634;BME280;14654;48.898;8.308;2023-09-12T02:53:56;99769.75;;;19.02;100.00
15634;BME280;14654;48.898;8.308;2023-09-12T02:56:22;99776.00;;;19.00;100.00
15634;BME280;14654;48.898;8.308;2023-09-12T02:58:48;99775.25;;;18.98;100.00
15634;BME280;14654;48.898;8.308;2023-09-12T03:01:17;99771.91;;;18.94;100.00
15634;BME280;14654;48.898;8.308;2023-09-12T03:03:45;99775.44;;;18.93;100.00
15634;BME280;14654;48.898;8.308;2023-09-12T03:06:11;99771.97;;;18.93;100.00
15634;BME280;14654;48.898;8.308;2023-09-12T03:08:37;99777.22;;;18.93;100.00
15634;BME280;14654;48.898;8.308;2023-09-12T03:11:02;99766.66;;;18.94;100.00
15634;BME280;14654;48.898;8.308;2023-09-12T03:13:28;99760.56;;;18.94;100.00
15634;BME280;14654;48.898;8.308;2023-09-12T03:15:53;99773.56;;;18.97;100.00
15634;BME280;14654;48.898;8.308;2023-09-12T03:18:19;99770.94;;;18.97;100.00
15634;BME280;14654;48.898;8.308;2023-09-12T03:20:44;99760.34;;;18.98;100.00
15634;BME280;14654;48.898;8.308;2023-09-12T03:23:09;99771.50;;;19.02;100.00
15634;BME280;14654;48.898;8.308;2023-09-12T03:25:38;99762.66;;;19.04;100.00
15634;BME280;14654;48.898;8.308;2023-09-12T03:28:05;99755.53;;;19.07;100.00
15634;BME280;14654;48.898;8.308;2023-09-12T03:30:32;99761.56;;;19.09;100.00
15634;BME280;14654;48.898;8.308;2023-09-12T03:32:58;99765.03;;;19.09;100.00
15634;BME280;14654;48.898;8.308;2023-09-12T03:35:23;99769.25;;;19.12;100.00
15634;BME280;14654;48.898;8.308;2023-09-12T03:37:48;99763.94;;;19.13;100.00
15634;BME280;14654;48.898;8.308;2023-09-12T03:40:14;99754.38;;;19.12;100.00
15634;BME280;14654;48.898;8.308;2023-09-12T03:42:39;99746.53;;;19.12;100.00
15634;BME280;14654;48.898;8.308;2023-09-12T03:45:05;99747.50;;;19.10;100.00
15634;BME280;14654;48.898;8.308;2023-09-12T03:47:30;99749.44;;;19.06;100.00
15634;BME280;14654;48.898;8.308;2023-09-12T03:49:55;99752.06;;;19.06;100.00
15634;BME280;14654;48.898;8.308;2023-09-12T03:52:21;99762.47;;;19.08;100.00
15634;BME280;14654;48.898;8.308;2023-09-12T03:54:46;99758.94;;;19.09;100.00
15634;BME280;14654;48.898;8.308;2023-09-12T03:57:11;99761.56;;;19.09;100.00
15634;BME280;14654;48.898;8.308;2023-09-12T03:59:37;99768.59;;;19.08;100.00
15634;BME280;14654;48.898;8.308;2023-09-12T04:02:03;99753.88;;;19.06;100.00
15634;BME280;14654;48.898;8.308;2023-09-12T04:04:28;99760.09;;;19.03;100.00
15634;BME280;14654;48.898;8.308;2023-09-12T04:06:54;99753.25;;;19.00;100.00
15634;BME280;14654;48.898;8.308;2023-09-12T04:09:20;99757.72;;;18.98;100.00
15634;BME280;14654;48.898;8.308;2023-09-12T04:11:45;99759.50;;;18.98;100.00
15634;BME280;14654;48.898;8.308;2023-09-12T04:14:11;99771.84;;;18.96;100.00
15634;BME280;14654;48.898;8.308;2023-09-12T04:16:36;99764.91;;;18.95;100.00
15634;BME280;14654;48.898;8.308;2023-09-12T04:19:02;99773.69;;;18.94;100.00
15634;BME280;14654;48.898;8.308;2023-09-12T04:21:28;99765.97;;;18.91;100.00
15634;BME280;14654;48.898;8.308;2023-09-12T04:23:54;99773.16;;;18.87;100.00
15634;BME280;14654;48.898;8.308;2023-09-12T04:26:19;99777.53;;;18.86;100.00
15634;BME280;14654;48.898;8.308;2023-09-12T04:28:47;99768.06;;;18.84;100.00
15634;BME280;14654;48.898;8.308;2023-09-12T04:31:12;99775.91;;;18.84;100.00
15634;BME280;14654;48.898;8.308;2023-09-12T04:33:37;99774.13;;;18.84;100.00
15634;BME280;14654;48.898;8.308;2023-09-12T04:36:03;99775.00;;;18.85;100.00
15634;BME280;14654;48.898;8.308;2023-09-12T04:38:28;99779.31;;;18.86;100.00
15634;BME280;14654;48.898;8.308;2023-09-12T04:40:56;99780.09;;;18.88;100.00
15634;BME280;14654;48.898;8.308;2023-09-12T04:43:23;99783.38;;;18.92;100.00
15634;BME280;14654;48.898;8.308;2023-09-12T04:45:48;99781.53;;;18.94;100.00
15634;BME280;14654;48.898;8.308;2023-09-12T04:48:14;99782.41;;;18.94;100.00
15634;BME280;14654;48.898;8.308;2023-09-12T04:50:42;99787.66;;;18.94;100.00
15634;BME280;14654;48.898;8.308;2023-09-12T04:53:08;99782.34;;;18.96;100.00
15634;BME280;14654;48.898;8.308;2023-09-12T04:55:37;99788.41;;;18.96;100.00
15634;BME280;14654;48.898;8.308;2023-09-12T04:58:03;99786.72;;;18.95;100.00
15634;BME280;14654;48.898;8.308;2023-09-12T05:00:29;99793.66;;;18.96;100.00
15634;BME280;14654;48.898;8.308;2023-09-12T05:02:54;99798.06;;;18.96;100.00
15634;BME280;14654;48.898;8.308;2023-09-12T05:05:20;99795.50;;;18.94;100.00
15634;BME280;14654;48.898;8.308;2023-09-12T05:07:45;99797.41;;;18.91;100.00
15634;BME280;14654;48.898;8.308;2023-09-12T05:10:10;99804.59;;;18.87;100.00
15634;BME280;14654;48.898;8.308;2023-09-12T05:12:36;99803.16;;;18.81;100.00
15634;BME280;14654;48.898;8.308;2023-09-12T05:15:01;99807.78;;;18.76;100.00
15634;BME280;14654;48.898;8.308;2023-09-12T05:17:27;99802.69;;;18.73;100.00
15634;BME280;14654;48.898;8.308;2023-09-12T05:19:52;99799.28;;;18.71;100.00
15634;BME280;14654;48.898;8.308;2023-09-12T05:22:18;99809.84;;;18.69;100.00
15634;BME280;14654;48.898;8.308;2023-09-12T05:24:43;99805.53;;;18.68;100.00
15634;BME280;14654;48.898;8.308;2023-09-12T05:27:10;99804.63;;;18.69;100.00
15634;BME280;14654;48.898;8.308;2023-09-12T05:29:36;99805.53;;;18.68;100.00
15634;BME280;14654;48.898;8.308;2023-09-12T05:32:01;99807.31;;;18.68;100.00
15634;BME280;14654;48.898;8.308;2023-09-12T05:34:26;99804.69;;;18.68;100.00
15634;BME280;14654;48.898;8.308;2023-09-12T05:36:52;99804.69;;;18.68;100.00
15634;BME280;14654;48.898;8.308;2023-09-12T05:39:17;99811.63;;;18.69;100.00
15634;BME280;14654;48.898;8.308;2023-09-12T05:41:43;99819.31;;;18.72;100.00
15634;BME280;14654;48.898;8.308;2023-09-12T05:44:08;99806.16;;;18.73;100.00
15634;BME280;14654;48.898;8.308;2023-09-12T05:46:34;99796.41;;;18.76;100.00
15634;BME280;14654;48.898;8.308;2023-09-12T05:49:00;99797.03;;;18.81;100.00
15634;BME280;14654;48.898;8.308;2023-09-12T05:51:25;99796.81;;;18.85;100.00
15634;BME280;14654;48.898;8.308;2023-09-12T05:53:50;99799.13;;;18.92;100.00
15634;BME280;14654;48.898;8.308;2023-09-12T05:56:16;99797.88;;;18.99;100.00
15634;BME280;14654;48.898;8.308;2023-09-12T05:58:41;99802.84;;;19.05;100.00
15634;BME280;14654;48.898;8.308;2023-09-12T06:01:08;99801.66;;;19.11;100.00
15634;BME280;14654;48.898;8.308;2023-09-12T06:03:33;99800.47;;;19.16;100.00
15634;BME280;14654;48.898;8.308;2023-09-12T06:05:59;99793.22;;;19.22;100.00
15634;BME280;14654;48.898;8.308;2023-09-12T06:08:24;99790.44;;;19.25;100.00
15634;BME280;14654;48.898;8.308;2023-09-12T06:10:50;99797.97;;;19.31;100.00
15634;BME280;14654;48.898;8.308;2023-09-12T06:13:19;99803.53;;;19.42;100.00
15634;BME280;14654;48.898;8.308;2023-09-12T06:15:44;99811.72;;;19.52;100.00
15634;BME280;14654;48.898;8.308;2023-09-12T06:18:09;99819.88;;;19.63;100.00
15634;BME280;14654;48.898;8.308;2023-09-12T06:20:35;99818.53;;;19.72;100.00
15634;BME280;14654;48.898;8.308;2023-09-12T06:23:00;99818.84;;;19.82;100.00
15634;BME280;14654;48.898;8.308;2023-09-12T06:25:25;99827.19;;;19.90;100.00
15634;BME280;14654;48.898;8.308;2023-09-12T06:27:51;99821.53;;;19.98;100.00
15634;BME280;14654;48.898;8.308;2023-09-12T06:30:16;99822.03;;;20.05;100.00
15634;BME280;14654;48.898;8.308;2023-09-12T06:32:42;99822.53;;;20.12;100.00
15634;BME280;14654;48.898;8.308;2023-09-12T06:35:07;99822.75;;;20.23;100.00
15634;BME280;14654;48.898;8.308;2023-09-12T06:37:35;99826.47;;;20.35;100.00
15634;BME280;14654;48.898;8.308;2023-09-12T06:40:00;99826.69;;;20.46;100.00
15634;BME280;14654;48.898;8.308;2023-09-12T06:42:26;99830.31;;;20.60;100.00
15634;BME280;14654;48.898;8.308;2023-09-12T06:44:51;99820.88;;;20.71;100.00
15634;BME280;14654;48.898;8.308;2023-09-12T06:47:16;99825.41;;;20.84;100.00
15634;BME280;14654;48.898;8.308;2023-09-12T06:49:42;99824.91;;;20.93;100.00
15634;BME280;14654;48.898;8.308;2023-09-12T06:52:07;99833.06;;;21.03;100.00
15634;BME280;14654;48.898;8.308;2023-09-12T06:54:34;99828.38;;;21.23;100.00
15634;BME280;14654;48.898;8.308;2023-09-12T06:57:00;99832.25;;;21.60;100.00
15634;BME280;14654;48.898;8.308;2023-09-12T06:59:25;99833.09;;;22.03;100.00
15634;BME280;14654;48.898;8.308;2023-09-12T07:01:50;99837.25;;;22.34;100.00
15634;BME280;14654;48.898;8.308;2023-09-12T07:04:16;99835.84;;;22.56;100.00
15634;BME280;14654;48.898;8.308;2023-09-12T07:06:41;99841.03;;;22.71;100.00
15634;BME280;14654;48.898;8.308;2023-09-12T07:09:07;99845.19;;;22.88;100.00
15634;BME280;14654;48.898;8.308;2023-09-12T07:11:34;99838.22;;;22.99;100.00
15634;BME280;14654;48.898;8.308;2023-09-12T07:13:59;99838.78;;;23.18;100.00
15634;BME280;14654;48.898;8.308;2023-09-12T07:16:25;99838.56;;;23.34;100.00
15634;BME280;14654;48.898;8.308;2023-09-12T07:18:50;99833.06;;;23.50;100.00
15634;BME280;14654;48.898;8.308;2023-09-12T07:21:16;99831.25;;;23.63;100.00
15634;BME280;14654;48.898;8.308;2023-09-12T07:23:41;99829.47;;;23.88;100.00
15634;BME280;14654;48.898;8.308;2023-09-12T07:26:12;99826.88;;;24.12;100.00
15634;BME280;14654;48.898;8.308;2023-09-12T07:28:37;99831.19;;;24.38;100.00
15634;BME280;14654;48.898;8.308;2023-09-12T07:31:02;99832.84;;;24.63;100.00
15634;BME280;14654;48.898;8.308;2023-09-12T07:33:28;99835.44;;;24.76;100.00
15634;BME280;14654;48.898;8.308;2023-09-12T07:35:53;99835.44;;;24.76;100.00
15634;BME280;14654;48.898;8.308;2023-09-12T07:38:19;99833.06;;;24.84;100.00
15634;BME280;14654;48.898;8.308;2023-09-12T07:40:45;99840.03;;;24.85;100.00
15634;BME280;14654;48.898;8.308;2023-09-12T07:43:10;99839.66;;;24.78;99.98
15634;BME280;14654;48.898;8.308;2023-09-12T07:45:36;99846.28;;;24.73;100.00
15634;BME280;14654;48.898;8.308;2023-09-12T07:48:06;99847.34;;;24.81;99.79
15634;BME280;14654;48.898;8.308;2023-09-12T07:50:32;99843.75;;;24.83;99.73
15634;BME280;14654;48.898;8.308;2023-09-12T07:52:57;99843.03;;;24.80;100.00
15634;BME280;14654;48.898;8.308;2023-09-12T07:55:22;99846.69;;;24.66;100.00
15634;BME280;14654;48.898;8.308;2023-09-12T07:57:48;99854.44;;;24.70;100.00
15634;BME280;14654;48.898;8.308;2023-09-12T08:00:13;99850.97;;;24.80;100.00
15634;BME280;14654;48.898;8.308;2023-09-12T08:02:38;99856.03;;;24.84;100.00
15634;BME280;14654;48.898;8.308;2023-09-12T08:05:04;99862.78;;;24.88;100.00
15634;BME280;14654;48.898;8.308;2023-09-12T08:07:30;99864.59;;;24.87;100.00
15634;BME280;14654;48.898;8.308;2023-09-12T08:09:57;99860.88;;;25.01;100.00
15634;BME280;14654;48.898;8.308;2023-09-12T08:12:24;99868.31;;;24.96;100.00
15634;BME280;14654;48.898;8.308;2023-09-12T08:14:51;99867.66;;;25.28;100.00
15634;BME280;14654;48.898;8.308;2023-09-12T08:17:17;99858.88;;;25.50;100.00
15634;BME280;14654;48.898;8.308;2023-09-12T08:19:42;99871.19;;;25.74;99.98
15634;BME280;14654;48.898;8.308;2023-09-12T08:22:09;99855.59;;;25.92;99.06
15634;BME280;14654;48.898;8.308;2023-09-12T08:24:36;99863.78;;;26.00;98.44
15634;BME280;14654;48.898;8.308;2023-09-12T08:27:03;99865.47;;;26.13;97.46
15634;BME280;14654;48.898;8.308;2023-09-12T08:29:28;99869.91;;;26.24;95.50
15634;BME280;14654;48.898;8.308;2023-09-12T08:31:54;99866.44;;;26.12;95.25
15634;BME280;14654;48.898;8.308;2023-09-12T08:34:22;99867.88;;;25.93;97.18
15634;BME280;14654;48.898;8.308;2023-09-12T08:36:48;99865.63;;;25.89;99.03
15634;BME280;14654;48.898;8.308;2023-09-12T08:39:22;99868.84;;;25.92;98.69
15634;BME280;14654;48.898;8.308;2023-09-12T08:41:49;99869.19;;;25.99;98.28
15634;BME280;14654;48.898;8.308;2023-09-12T08:44:15;99862.94;;;26.11;96.35
15634;BME280;14654;48.898;8.308;2023-09-12T08:46:42;99859.53;;;26.21;95.87
15634;BME280;14654;48.898;8.308;2023-09-12T08:49:07;99860.31;;;26.32;94.88
15634;BME280;14654;48.898;8.308;2023-09-12T08:51:35;99859.88;;;26.27;92.75
15634;BME280;14654;48.898;8.308;2023-09-12T08:54:00;99868.13;;;26.45;92.19
15634;BME280;14654;48.898;8.308;2023-09-12T08:56:26;99871.19;;;26.62;91.73
15634;BME280;14654;48.898;8.308;2023-09-12T08:58:52;99870.81;;;26.67;91.54
15634;BME280;14654;48.898;8.308;2023-09-12T09:01:19;99864.50;;;26.79;90.80
15634;BME280;14654;48.898;8.308;2023-09-12T09:03:46;99866.19;;;26.80;91.06
15634;BME280;14654;48.898;8.308;2023-09-12T09:06:13;99863.47;;;26.59;91.40
15634;BME280;14654;48.898;8.308;2023-09-12T09:08:39;99866.91;;;26.50;92.07
15634;BME280;14654;48.898;8.308;2023-09-12T09:11:06;99861.66;;;26.38;92.58
15634;BME280;14654;48.898;8.308;2023-09-12T09:13:34;99860.69;;;26.39;93.11
15634;BME280;14654;48.898;8.308;2023-09-12T09:16:15;99855.09;;;26.54;93.18
15634;BME280;14654;48.898;8.308;2023-09-12T09:18:57;99854.06;;;26.66;93.18
15634;BME280;14654;48.898;8.308;2023-09-12T09:21:28;99853.13;;;26.88;92.54
15634;BME280;14654;48.898;8.308;2023-09-12T09:23:57;99847.19;;;27.27;89.66
15634;BME280;14654;48.898;8.308;2023-09-12T09:26:23;99840.78;;;27.39;88.82
15634;BME280;14654;48.898;8.308;2023-09-12T09:29:10;99840.91;;;27.59;88.82
15634;BME280;14654;48.898;8.308;2023-09-12T09:31:40;99844.28;;;27.71;88.98
15634;BME280;14654;48.898;8.308;2023-09-12T09:34:13;99837.28;;;27.80;88.60
15634;BME280;14654;48.898;8.308;2023-09-12T09:36:49;99839.00;;;27.91;86.55
15634;BME280;14654;48.898;8.308;2023-09-12T09:39:26;99838.84;;;27.92;86.90
15634;BME280;14654;48.898;8.308;2023-09-12T09:41:53;99837.50;;;27.98;87.36
15634;BME280;14654;48.898;8.308;2023-09-12T09:44:21;99837.91;;;28.03;88.51
15634;BME280;14654;48.898;8.308;2023-09-12T09:46:50;99851.75;;;28.07;89.24
15634;BME280;14654;48.898;8.308;2023-09-12T09:49:19;99854.16;;;28.10;88.86
15634;BME280;14654;48.898;8.308;2023-09-12T09:51:45;99853.56;;;27.96;88.88
15634;BME280;14654;48.898;8.308;2023-09-12T09:54:14;99852.59;;;28.07;87.95
15634;BME280;14654;48.898;8.308;2023-09-12T09:56:50;99852.78;;;28.16;88.02
15634;BME280;14654;48.898;8.308;2023-09-12T09:59:17;99843.00;;;28.16;87.89
15634;BME280;14654;48.898;8.308;2023-09-12T10:01:44;99844.78;;;28.16;88.14
15634;BME280;14654;48.898;8.308;2023-09-12T10:04:10;99838.44;;;28.07;89.16
15634;BME280;14654;48.898;8.308;2023-09-12T10:06:36;99841.41;;;27.94;89.96
15634;BME280;14654;48.898;8.308;2023-09-12T10:09:06;99843.50;;;27.90;90.52
15634;BME280;14654;48.898;8.308;2023-09-12T10:11:32;99841.25;;;27.95;91.11
15634;BME280;14654;48.898;8.308;2023-09-12T10:14:00;99837.16;;;27.91;90.54
15634;BME280;14654;48.898;8.308;2023-09-12T10:16:35;99836.53;;;28.19;88.37
15634;BME280;14654;48.898;8.308;2023-09-12T10:19:24;99831.38;;;28.27;87.24
15634;BME280;14654;48.898;8.308;2023-09-12T10:22:00;99828.28;;;28.32;86.08
15634;BME280;14654;48.898;8.308;2023-09-12T10:24:27;99828.28;;;28.32;86.52
15634;BME280;14654;48.898;8.308;2023-09-12T10:26:53;99827.44;;;28.41;85.55
15634;BME280;14654;48.898;8.308;2023-09-12T10:29:20;99828.28;;;28.41;84.74
15634;BME280;14654;48.898;8.308;2023-09-12T10:31:47;99825.06;;;28.38;85.53
15634;BME280;14654;48.898;8.308;2023-09-12T10:34:13;99825.06;;;28.38;85.72
15634;BME280;14654;48.898;8.308;2023-09-12T10:36:40;99815.81;;;28.42;85.86
15634;BME280;14654;48.898;8.308;2023-09-12T10:39:07;99819.72;;;28.48;85.82
15634;BME280;14654;48.898;8.308;2023-09-12T10:41:37;99814.00;;;28.42;84.66
15634;BME280;14654;48.898;8.308;2023-09-12T10:44:02;99811.91;;;28.36;84.39
15634;BME280;14654;48.898;8.308;2023-09-12T10:46:36;99805.31;;;28.50;83.81
15634;BME280;14654;48.898;8.308;2023-09-12T10:49:03;99800.81;;;28.60;84.36
15634;BME280;14654;48.898;8.308;2023-09-12T10:51:31;99814.81;;;28.72;84.41
15634;BME280;14654;48.898;8.308;2023-09-12T10:53:56;99810.75;;;28.78;83.91
15634;BME280;14654;48.898;8.308;2023-09-12T10:56:22;99804.84;;;28.74;83.66
15634;BME280;14654;48.898;8.308;2023-09-12T11:01:30;99803.22;;;28.73;84.59
15634;BME280;14654;48.898;8.308;2023-09-12T11:03:56;99799.94;;;28.80;84.74
15634;BME280;14654;48.898;8.308;2023-09-12T11:06:30;99794.91;;;28.77;85.04
15634;BME280;14654;48.898;8.308;2023-09-12T11:11:43;99786.47;;;28.91;82.59
15634;BME280;14654;48.898;8.308;2023-09-12T11:14:09;99779.88;;;28.95;83.16
15634;BME280;14654;48.898;8.308;2023-09-12T11:16:35;99791.31;;;29.05;84.25
15634;BME280;14654;48.898;8.308;2023-09-12T11:21:47;99778.16;;;29.04;85.02
15634;BME280;14654;48.898;8.308;2023-09-12T11:24:13;99776.59;;;29.11;84.94
15634;BME280;14654;48.898;8.308;2023-09-12T11:29:19;99771.06;;;29.23;83.91
15634;BME280;14654;48.898;8.308;2023-09-12T11:31:53;99773.03;;;29.20;83.92
15634;BME280;14654;48.898;8.308;2023-09-12T11:34:18;99769.91;;;29.25;83.25
15634;BME280;14654;48.898;8.308;2023-09-12T11:36:45;99766.38;;;29.34;82.50
15634;BME280;14654;48.898;8.308;2023-09-12T11:39:25;99772.13;;;29.40;81.08
15634;BME280;14654;48.898;8.308;2023-09-12T11:41:53;99765.81;;;29.41;80.20
15634;BME280;14654;48.898;8.308;2023-09-12T11:44:20;99767.19;;;29.45;79.55
15634;BME280;14654;48.898;8.308;2023-09-12T11:46:49;99756.47;;;29.27;79.12
15634;BME280;14654;48.898;8.308;2023-09-12T11:49:16;99765.97;;;29.29;77.36
15634;BME280;14654;48.898;8.308;2023-09-12T11:51:51;99765.81;;;29.41;77.37
15634;BME280;14654;48.898;8.308;2023-09-12T11:54:19;99760.03;;;29.45;75.54
15634;BME280;14654;48.898;8.308;2023-09-12T11:56:46;99758.28;;;29.54;74.04
15634;BME280;14654;48.898;8.308;2023-09-12T11:59:12;99761.94;;;29.53;72.88
15634;BME280;14654;48.898;8.308;2023-09-12T12:01:38;99760.13;;;29.54;72.69
15634;BME280;14654;48.898;8.308;2023-09-12T12:04:03;99769.88;;;29.63;71.33
15634;BME280;14654;48.898;8.308;2023-09-12T12:06:30;99758.75;;;29.49;70.06
15634;BME280;14654;48.898;8.308;2023-09-12T12:08:55;99760.44;;;29.69;70.32
15634;BME280;14654;48.898;8.308;2023-09-12T12:11:21;99764.47;;;29.73;69.79
15634;BME280;14654;48.898;8.308;2023-09-12T12:13:46;99757.25;;;29.65;69.79
15634;BME280;14654;48.898;8.308;2023-09-12T12:16:18;99755.34;;;29.75;69.72
15634;BME280;14654;48.898;8.308;2023-09-12T12:18:43;99750.84;;;29.76;69.51
15634;BME280;14654;48.898;8.308;2023-09-12T12:21:08;99748.88;;;29.78;69.44
15634;BME280;14654;48.898;8.308;2023-09-12T12:23:34;99751.16;;;29.73;69.85
15634;BME280;14654;48.898;8.308;2023-09-12T12:26:07;99750.56;;;29.79;70.10
15634;BME280;14654;48.898;8.308;2023-09-12T12:28:35;99744.66;;;29.75;71.15
15634;BME280;14654;48.898;8.308;2023-09-12T12:31:00;99751.69;;;29.76;71.36
15634;BME280;14654;48.898;8.308;2023-09-12T12:33:25;99746.28;;;29.86;69.93
15634;BME280;14654;48.898;8.308;2023-09-12T12:36:04;99742.22;;;29.82;70.00
15634;BME280;14654;48.898;8.308;2023-09-12T12:38:34;99735.38;;;29.79;69.71
15634;BME280;14654;48.898;8.308;2023-09-12T12:41:00;99731.34;;;29.75;69.69
15634;BME280;14654;48.898;8.308;2023-09-12T12:43:26;99723.13;;;29.87;70.18
15634;BME280;14654;48.898;8.308;2023-09-12T12:45:53;99720.47;;;29.87;70.10
15634;BME280;14654;48.898;8.308;2023-09-12T12:48:29;99724.78;;;29.88;70.03
15634;BME280;14654;48.898;8.308;2023-09-12T12:50:55;99719.44;;;29.70;69.41
15634;BME280;14654;48.898;8.308;2023-09-12T12:53:37;99720.00;;;29.91;68.40
15634;BME280;14654;48.898;8.308;2023-09-12T12:56:02;99712.75;;;29.84;69.66
15634;BME280;14654;48.898;8.308;2023-09-12T12:58:28;99718.16;;;29.92;70.95
15634;BME280;14654;48.898;8.308;2023-09-12T13:00:53;99722.78;;;29.90;71.67
15634;BME280;14654;48.898;8.308;2023-09-12T13:03:19;99718.78;;;30.04;71.68